TimePDT,TemperatureF,Dew PointF,Humidity,Sea Level PressureIn,VisibilityMPH,Wind Direction,Wind SpeedMPH,Gust SpeedMPH,PrecipitationIn,Events,Conditions,WindDirDegrees,DateUTC
12:53 AM,61.0,37.0,41,29.91,10.0,WSW,5.8,-,N/A,,Clear,250,2013-10-22 07:53:00
1:53 AM,57.9,35.1,42,29.91,10.0,WNW,4.6,-,N/A,,Clear,300,2013-10-22 08:53:00
2:53 AM,57.9,34.0,41,29.91,10.0,Calm,Calm,-,N/A,,Clear,0,2013-10-22 09:53:00
3:53 AM,57.9,30.9,36,29.91,10.0,Calm,Calm,-,N/A,,Clear,0,2013-10-22 10:53:00
4:53 AM,57.9,28.0,32,29.91,10.0,WSW,6.9,-,N/A,,Clear,250,2013-10-22 11:53:00
5:53 AM,57.0,27.0,32,29.92,10.0,West,5.8,-,N/A,,Clear,260,2013-10-22 12:53:00
6:53 AM,55.9,28.9,36,29.94,10.0,WSW,4.6,-,N/A,,Clear,250,2013-10-22 13:53:00
7:53 AM,59.0,30.0,33,29.95,10.0,West,3.5,-,N/A,,Clear,260,2013-10-22 14:53:00
8:53 AM,68.0,37.9,33,29.96,10.0,Calm,Calm,-,N/A,,Clear,0,2013-10-22 15:53:00
9:53 AM,75.0,35.1,23,29.96,10.0,WNW,3.5,-,N/A,,Clear,290,2013-10-22 16:53:00
10:53 AM,81.0,32.0,17,29.95,10.0,WNW,4.6,-,N/A,,Clear,290,2013-10-22 17:53:00
11:53 AM,84.9,27.0,12,29.94,10.0,NW,4.6,-,N/A,,Clear,310,2013-10-22 18:53:00
12:53 PM,87.1,33.1,15,29.91,10.0,Calm,Calm,-,N/A,,Clear,0,2013-10-22 19:53:00
1:53 PM,90.0,27.0,10,29.88,10.0,Calm,Calm,-,N/A,,Clear,0,2013-10-22 20:53:00
2:53 PM,90.0,28.0,11,29.87,10.0,North,3.5,-,N/A,,Clear,10,2013-10-22 21:53:00
3:53 PM,91.0,26.1,10,29.85,10.0,East,3.5,-,N/A,,Clear,80,2013-10-22 22:53:00
4:53 PM,90.0,25.0,10,29.84,10.0,ENE,3.5,-,N/A,,Clear,70,2013-10-22 23:53:00
5:53 PM,82.9,32.0,16,29.83,10.0,West,3.5,-,N/A,,Clear,270,2013-10-23 00:53:00
6:53 PM,77.0,32.0,19,29.83,10.0,West,5.8,-,N/A,,Clear,260,2013-10-23 01:53:00
7:53 PM,73.9,33.1,22,29.84,10.0,Calm,Calm,-,N/A,,Clear,0,2013-10-23 02:53:00
8:53 PM,70.0,35.1,28,29.85,10.0,Calm,Calm,-,N/A,,Clear,0,2013-10-23 03:53:00
9:53 PM,66.0,37.9,36,29.85,10.0,WSW,4.6,-,N/A,,Clear,240,2013-10-23 04:53:00
10:53 PM,66.0,37.0,34,29.85,10.0,SW,3.5,-,N/A,,Clear,230,2013-10-23 05:53:00
11:53 PM,64.0,30.0,28,29.83,10.0,West,5.8,-,N/A,,Clear,270,2013-10-23 06:53:00